Time;durP1;ratioP1;P1;durP2;ratioP2;P2;SDS_P1;SDS_P2;PMS_P1;PMS_P2;Temp;Humidity;BMP_temperature;BMP_pressure;BME280_temperature;BME280_humidity;BME280_pressure;Samples;Min_cycle;Max_cycle;Signal;HPM_P1;HPM_P2
2024/03/25 00:00:10;;;;;;;14.80;2.40;;;;;;;8.57;60.93;100839.97;4936610;28;100644;-93
2024/03/25 00:02:41;;;;;;;14.07;2.45;;;;;;;8.58;61.04;100835.66;4953503;28;96853;-93
2024/03/25 00:05:10;;;;;;;16.25;2.50;;;;;;;8.60;60.98;100841.75;4958353;28;96774;-94
2024/03/25 00:07:37;;;;;;;17.00;2.38;;;;;;;8.60;60.96;100840.88;4937600;28;100501;-93
2024/03/25 00:10:03;;;;;;;14.13;2.47;;;;;;;8.61;60.90;100833.13;4937512;28;100561;-93
2024/03/25 00:12:29;;;;;;;17.35;2.30;;;;;;;8.62;60.92;100834.84;4940479;28;96822;-94
2024/03/25 00:14:54;;;;;;;12.88;2.10;;;;;;;8.63;60.97;100843.53;4956241;28;96651;-94
2024/03/25 00:17:19;;;;;;;14.50;2.38;;;;;;;8.64;61.05;100842.69;4944026;28;99263;-93
2024/03/25 00:19:50;;;;;;;18.60;2.65;;;;;;;8.64;61.12;100840.94;4956970;28;97448;-94
2024/03/25 00:22:21;;;;;;;18.58;2.67;;;;;;;8.64;61.34;100840.09;4947837;28;97007;-94
2024/03/25 00:24:47;;;;;;;16.10;2.25;;;;;;;8.66;61.04;100831.50;4950066;28;96676;-93
2024/03/25 00:27:13;;;;;;;14.52;3.30;;;;;;;8.68;61.08;100828.88;4945932;28;100712;-93
2024/03/25 00:29:39;;;;;;;18.48;2.60;;;;;;;8.67;61.13;100827.16;4942399;28;100739;-94
2024/03/25 00:32:05;;;;;;;17.83;2.25;;;;;;;8.67;61.21;100817.63;4938393;28;96798;-93
2024/03/25 00:34:32;;;;;;;17.80;2.78;;;;;;;8.68;61.01;100818.50;4963660;28;96983;-94
2024/03/25 00:36:58;;;;;;;14.30;3.28;;;;;;;8.67;60.98;100822.81;4939697;28;99281;-93
2024/03/25 00:39:24;;;;;;;16.77;2.38;;;;;;;8.66;60.82;100825.38;4948834;28;100543;-93
2024/03/25 00:41:49;;;;;;;14.82;2.15;;;;;;;8.64;60.78;100821.88;4946280;28;98158;-93
2024/03/25 00:44:15;;;;;;;20.83;3.25;;;;;;;8.62;60.89;100821.84;4955906;28;96855;-93
2024/03/25 00:46:41;;;;;;;18.25;3.15;;;;;;;8.58;60.83;100825.25;4940179;28;99227;-93
2024/03/25 00:49:07;;;;;;;14.88;2.47;;;;;;;8.57;60.71;100829.56;4940142;28;100407;-93
2024/03/25 00:51:33;;;;;;;15.45;2.38;;;;;;;8.55;60.84;100826.03;4958775;28;96778;-93
2024/03/25 00:53:58;;;;;;;13.18;2.33;;;;;;;8.53;60.74;100827.75;4957721;28;96946;-93
2024/03/25 00:56:23;;;;;;;10.13;1.95;;;;;;;8.51;60.66;100826.84;4954851;28;100759;-93
2024/03/25 00:58:49;;;;;;;12.18;2.13;;;;;;;8.50;60.66;100829.41;4949116;28;100382;-93
2024/03/25 01:01:14;;;;;;;13.43;2.20;;;;;;;8.47;60.54;100827.63;4958393;28;96837;-93
2024/03/25 01:03:40;;;;;;;18.73;2.40;;;;;;;8.44;60.46;100831.88;4935812;28;96975;-93
2024/03/25 01:06:05;;;;;;;19.67;2.92;;;;;;;8.39;60.31;100834.34;4957877;28;100646;-93
2024/03/25 01:08:30;;;;;;;12.20;2.33;;;;;;;8.34;60.71;100833.34;4953302;28;102085;-92
2024/03/25 01:10:56;;;;;;;16.50;2.75;;;;;;;8.30;60.83;100832.41;4973096;28;96892;-93
2024/03/25 01:13:21;;;;;;;12.32;2.05;;;;;;;8.29;60.58;100833.28;4944455;28;96841;-94
2024/03/25 01:15:47;;;;;;;11.98;2.78;;;;;;;8.26;60.60;100835.81;4952223;28;96887;-93
2024/03/25 01:18:13;;;;;;;13.80;2.78;;;;;;;8.22;60.57;100841.78;4945904;28;99068;-93
2024/03/25 01:20:38;;;;;;;9.32;2.22;;;;;;;8.19;60.48;100844.31;4947557;28;96961;-93
2024/03/25 01:23:04;;;;;;;18.33;2.42;;;;;;;8.14;60.39;100852.00;4962190;28;96784;-94
2024/03/25 01:25:30;;;;;;;14.15;2.60;;;;;;;8.11;60.43;100838.06;4938428;28;99987;-93
2024/03/25 01:27:56;;;;;;;14.52;2.88;;;;;;;8.07;60.52;100851.81;4957842;28;97536;-93
2024/03/25 01:30:22;;;;;;;16.15;2.50;;;;;;;8.05;60.57;100843.13;4960737;28;96825;-93
2024/03/25 01:32:48;;;;;;;11.60;2.47;;;;;;;8.01;60.46;100847.38;4954852;28;97136;-93
2024/03/25 01:35:15;;;;;;;12.07;2.30;;;;;;;7.97;60.50;100848.16;4940535;28;99381;-94
2024/03/25 01:37:41;;;;;;;23.50;2.83;;;;;;;7.94;60.49;100853.25;4947884;28;99454;-93
2024/03/25 01:40:07;;;;;;;12.88;2.35;;;;;;;7.91;60.58;100848.84;4957353;28;96773;-93
2024/03/25 01:42:33;;;;;;;15.13;2.75;;;;;;;7.87;60.54;100846.19;4946124;28;96930;-94
2024/03/25 01:44:58;;;;;;;12.02;2.17;;;;;;;7.82;60.51;100833.97;4945005;28;98626;-93
2024/03/25 01:47:25;;;;;;;12.23;2.47;;;;;;;7.82;60.72;100851.25;4958388;28;100303;-93
2024/03/25 01:49:53;;;;;;;12.02;2.90;;;;;;;7.79;60.65;100849.47;4946303;28;96817;-94
2024/03/25 01:52:22;;;;;;;9.75;2.15;;;;;;;7.77;60.66;100855.44;4950006;28;96988;-92
2024/03/25 01:54:49;;;;;;;15.20;3.33;;;;;;;7.74;60.60;100845.88;4954541;28;99314;-90
2024/03/25 01:57:15;;;;;;;14.07;2.60;;;;;;;7.72;60.48;100855.34;4954074;28;99713;-92
2024/03/25 01:59:41;;;;;;;13.40;3.00;;;;;;;7.70;60.76;100854.44;4955794;28;96851;-93
2024/03/25 02:02:07;;;;;;;12.98;2.13;;;;;;;7.71;60.60;100860.50;4951701;28;96747;-91
2024/03/25 02:04:32;;;;;;;15.38;2.67;;;;;;;7.69;60.50;100851.81;4951162;28;99085;-92
2024/03/25 02:06:59;;;;;;;18.58;2.88;;;;;;;7.66;60.44;100855.19;4949430;28;99317;-91
2024/03/25 02:09:26;;;;;;;16.75;2.78;;;;;;;7.63;60.53;100853.41;4962435;28;96922;-90
2024/03/25 02:11:53;;;;;;;13.20;2.42;;;;;;;7.62;60.85;100853.38;4964037;28;96754;-92
2024/03/25 02:14:19;;;;;;;15.50;2.13;;;;;;;7.62;60.48;100856.84;4949289;28;99189;-94
2024/03/25 02:16:44;;;;;;;10.43;2.75;;;;;;;7.61;60.69;100860.28;4943023;28;99477;-93
2024/03/25 02:19:13;;;;;;;15.65;2.78;;;;;;;7.61;60.85;100854.19;4945646;28;103685;-93
2024/03/25 02:21:39;;;;;;;22.67;2.85;;;;;;;7.62;60.84;100855.97;4941198;28;96917;-92
2024/03/25 02:24:10;;;;;;;15.18;2.55;;;;;;;7.62;61.15;100858.56;4953991;28;100055;-93
2024/03/25 02:26:35;;;;;;;16.33;2.42;;;;;;;7.63;60.90;100858.59;4952786;28;99141;-93
2024/03/25 02:29:02;;;;;;;17.92;2.85;;;;;;;7.64;60.95;100854.28;4955171;28;96814;-93
2024/03/25 02:31:27;;;;;;;19.67;2.40;;;;;;;7.65;61.04;100855.16;4942560;28;96798;-93
2024/03/25 02:33:52;;;;;;;16.77;2.85;;;;;;;7.65;61.33;100850.84;4961089;28;99177;-92
2024/03/25 02:36:18;;;;;;;21.38;4.20;;;;;;;7.67;61.48;100848.31;4950480;28;97364;-93
2024/03/25 02:38:43;;;;;;;12.90;2.60;;;;;;;7.69;61.54;100850.06;4960470;28;96891;-93
2024/03/25 02:41:09;;;;;;;12.68;3.08;;;;;;;7.72;61.59;100844.97;4938639;28;96958;-93
2024/03/25 02:43:34;;;;;;;23.35;3.20;;;;;;;7.76;61.63;100844.19;4945672;28;99789;-93
2024/03/25 02:46:00;;;;;;;16.67;2.65;;;;;;;7.80;61.47;100846.00;4949477;28;96837;-92
2024/03/25 02:48:26;;;;;;;19.52;2.30;;;;;;;7.82;61.68;100839.16;4954552;28;96887;-93
2024/03/25 02:50:51;;;;;;;17.02;2.75;;;;;;;7.87;61.68;100840.97;4938094;28;97013;-93
2024/03/25 02:53:16;;;;;;;15.68;2.60;;;;;;;7.90;61.63;100841.94;4935386;28;100238;-93
2024/03/25 02:55:42;;;;;;;12.57;2.30;;;;;;;7.92;61.35;100834.19;4952989;28;100068;-93
2024/03/25 02:58:07;;;;;;;18.52;2.85;;;;;;;7.93;61.38;100830.72;4935165;28;96949;-84
2024/03/25 03:00:33;;;;;;;19.10;2.35;;;;;;;7.95;61.36;100834.22;4947631;28;96942;-84
2024/03/25 03:02:58;;;;;;;12.57;2.63;;;;;;;7.95;61.34;100823.84;4945854;28;97999;-84
2024/03/25 03:05:23;;;;;;;11.60;2.13;;;;;;;7.95;61.23;100821.22;4938186;28;100631;-84
2024/03/25 03:07:49;;;;;;;18.63;2.53;;;;;;;7.94;61.26;100824.69;4947392;28;99069;-84
2024/03/25 03:10:15;;;;;;;9.88;2.50;;;;;;;7.92;61.04;100819.47;4948866;28;96892;-84
2024/03/25 03:12:41;;;;;;;15.98;2.67;;;;;;;7.92;61.06;100823.78;4945583;28;97972;-84
2024/03/25 03:15:07;;;;;;;16.75;2.40;;;;;;;7.90;61.14;100808.16;4954050;28;101005;-84
2024/03/25 03:17:32;;;;;;;14.90;2.42;;;;;;;7.90;60.89;100813.34;4946164;28;96976;-84
2024/03/25 03:19:57;;;;;;;13.80;2.47;;;;;;;7.90;60.95;100820.28;4947240;28;96773;-84
2024/03/25 03:22:23;;;;;;;17.63;2.58;;;;;;;7.90;60.89;100818.56;4947359;28;107207;-84
2024/03/25 03:24:48;;;;;;;13.73;2.90;;;;;;;7.88;60.72;100812.44;4945988;28;97785;-84
2024/03/25 03:27:14;;;;;;;12.65;2.47;;;;;;;7.86;60.77;100818.44;4948270;28;96935;-84
2024/03/25 03:29:40;;;;;;;14.90;2.70;;;;;;;7.83;60.71;100814.06;4933157;28;97531;-84
2024/03/25 03:32:05;;;;;;;16.88;2.38;;;;;;;7.78;60.74;100811.34;4963336;28;100270;-84
2024/03/25 03:34:31;;;;;;;14.75;2.30;;;;;;;7.75;60.55;100819.09;4947922;28;100374;-84
2024/03/25 03:36:56;;;;;;;13.80;2.08;;;;;;;7.73;60.74;100817.28;4930109;28;98179;-84
2024/03/25 03:39:22;;;;;;;9.73;2.28;;;;;;;7.71;60.68;100813.78;4950765;28;96947;-84
2024/03/25 03:41:47;;;;;;;11.68;2.05;;;;;;;7.67;60.58;100822.34;4948637;28;103153;-84
2024/03/25 03:44:14;;;;;;;12.27;2.08;;;;;;;7.65;60.37;100817.09;4949962;28;97446;-84
2024/03/25 03:46:40;;;;;;;14.13;2.35;;;;;;;7.61;60.40;100816.16;4946404;28;96998;-85
2024/03/25 03:49:05;;;;;;;13.68;2.58;;;;;;;7.57;60.58;100816.03;4934608;28;97069;-84
2024/03/25 03:51:31;;;;;;;17.05;2.47;;;;;;;7.54;60.42;100818.53;4949122;28;98034;-84
2024/03/25 03:53:57;;;;;;;14.43;2.42;;;;;;;7.48;60.60;100811.50;4951799;28;97563;-84
2024/03/25 03:56:22;;;;;;;8.70;2.17;;;;;;;7.44;60.44;100804.47;4932327;28;96806;-83
2024/03/25 03:58:47;;;;;;;10.75;2.08;;;;;;;7.40;60.48;100807.84;4946845;28;96994;-84
2024/03/25 04:01:18;;;;;;;17.60;2.72;;;;;;;7.37;60.56;100803.44;4928916;28;100707;-84
2024/03/25 04:03:44;;;;;;;16.92;2.63;;;;;;;7.35;60.36;100805.13;4935028;28;100746;-84
2024/03/25 04:06:13;;;;;;;14.55;2.58;;;;;;;7.30;60.38;100806.72;4950214;28;96854;-84
2024/03/25 04:08:39;;;;;;;12.40;2.05;;;;;;;7.27;60.37;100805.75;4937359;28;96830;-83
2024/03/25 04:11:09;;;;;;;11.30;2.40;;;;;;;7.24;60.50;100798.78;4928948;28;100810;-83
2024/03/25 04:13:34;;;;;;;;;;;;;;;7.17;60.46;100810.72;4930924;28;100446;-84
2024/03/25 04:16:04;;;;;;;8.85;2.00;;;;;;;7.16;60.39;100811.53;4944169;28;96862;-84
2024/03/25 04:18:30;;;;;;;12.32;2.75;;;;;;;7.12;60.50;100809.72;4949185;28;96849;-84
2024/03/25 04:20:56;;;;;;;13.48;2.50;;;;;;;7.10;60.52;100813.13;4930303;28;100290;-83
2024/03/25 04:23:22;;;;;;;9.27;2.30;;;;;;;7.08;60.65;100810.50;4932449;28;100385;-84
2024/03/25 04:25:48;;;;;;;8.85;2.10;;;;;;;7.06;60.66;100817.38;4960504;28;96876;-84
2024/03/25 04:28:13;;;;;;;14.77;2.97;;;;;;;7.04;60.57;100809.53;4931573;28;97045;-83
2024/03/25 04:30:38;;;;;;;10.50;2.47;;;;;;;7.03;60.60;100820.72;4950073;28;100696;-84
2024/03/25 04:33:04;;;;;;;11.80;2.20;;;;;;;7.00;60.66;100817.19;4930216;28;100489;-83
2024/03/25 04:35:32;;;;;;;13.27;2.25;;;;;;;6.98;60.66;100816.25;4933247;28;97026;-84
2024/03/25 04:37:58;;;;;;;10.85;2.40;;;;;;;6.96;60.48;100811.03;4944838;28;98082;-83
2024/03/25 04:40:23;;;;;;;12.45;2.25;;;;;;;6.95;60.54;100813.59;4950187;28;100614;-84
2024/03/25 04:42:48;;;;;;;13.23;2.47;;;;;;;6.92;60.66;100814.38;4946779;28;99640;-84
2024/03/25 04:45:14;;;;;;;12.10;2.45;;;;;;;6.91;60.35;100811.75;4949083;28;97136;-84
2024/03/25 04:47:40;;;;;;;10.15;2.75;;;;;;;6.89;60.75;100811.72;4945290;28;97117;-83
2024/03/25 04:50:06;;;;;;;18.25;3.05;;;;;;;6.88;60.79;100809.06;4943867;28;97772;-83
2024/03/25 04:52:32;;;;;;;19.42;2.53;;;;;;;6.86;60.98;100812.50;4943593;28;100399;-83
2024/03/25 04:54:57;;;;;;;17.83;3.03;;;;;;;6.85;61.14;100815.94;4929592;28;97903;-84
2024/03/25 04:57:23;;;;;;;11.30;2.90;;;;;;;6.84;60.78;100808.09;4928056;28;97181;-84
2024/03/25 04:59:48;;;;;;;8.77;1.92;;;;;;;6.84;60.98;100813.28;4951531;28;100098;-84
2024/03/25 05:02:14;;;;;;;10.25;2.67;;;;;;;6.84;61.04;100809.00;4948397;28;100284;-83
2024/03/25 05:04:39;;;;;;;18.67;3.33;;;;;;;6.83;61.09;100812.44;4950016;28;97196;-83
2024/03/25 05:07:05;;;;;;;12.95;2.70;;;;;;;6.83;60.88;100815.03;4947777;28;96860;-84
2024/03/25 05:09:30;;;;;;;12.98;3.20;;;;;;;6.85;60.99;100812.47;4945637;28;97623;-84
2024/03/25 05:11:55;;;;;;;13.73;2.85;;;;;;;6.84;61.11;100823.66;4951046;28;97352;-84
2024/03/25 05:14:21;;;;;;;15.48;3.33;;;;;;;6.83;60.98;100821.94;4945590;28;96889;-83
2024/03/25 05:16:46;;;;;;;17.58;3.70;;;;;;;6.85;61.14;100830.63;4933690;28;97070;-83
2024/03/25 05:19:12;;;;;;;17.42;3.53;;;;;;;6.86;61.19;100824.56;4945074;28;100625;-83
2024/03/25 05:21:37;;;;;;;18.95;3.70;;;;;;;6.88;61.32;100833.31;4947692;28;97427;-84
2024/03/25 05:24:03;;;;;;;16.10;3.25;;;;;;;6.90;60.98;100833.31;4933710;28;96958;-84
2024/03/25 05:26:29;;;;;;;22.02;3.80;;;;;;;6.91;61.27;100833.38;4955941;28;96925;-84
2024/03/25 05:28:55;;;;;;;16.77;4.50;;;;;;;6.92;61.13;100840.31;4950458;28;98293;-84
2024/03/25 05:31:21;;;;;;;17.08;3.47;;;;;;;6.94;61.06;100840.38;4952317;28;97811;-84
2024/03/25 05:33:46;;;;;;;18.02;3.90;;;;;;;6.93;61.16;100839.47;4933740;28;96867;-84
2024/03/25 05:36:12;;;;;;;15.73;3.30;;;;;;;6.95;60.91;100842.09;4950347;28;97217;-84
2024/03/25 05:38:38;;;;;;;15.73;3.70;;;;;;;6.93;60.96;100843.78;4931525;28;100540;-83
2024/03/25 05:41:04;;;;;;;15.15;3.45;;;;;;;6.91;60.73;100835.09;4954142;28;100718;-84
2024/03/25 05:43:29;;;;;;;14.85;3.38;;;;;;;6.89;60.85;100834.19;4934027;28;97025;-84
2024/03/25 05:45:55;;;;;;;16.17;3.33;;;;;;;6.88;60.86;100829.81;4949790;28;97268;-83
2024/03/25 05:48:31;;;;;;;13.45;3.50;;;;;;;6.86;60.78;100832.34;4951492;28;100675;-83
2024/03/25 05:51:09;;;;;;;13.60;3.50;;;;;;;6.86;60.87;100829.75;4956009;28;97608;-83
2024/03/25 05:53:35;;;;;;;16.65;3.20;;;;;;;6.84;60.40;100832.34;4940900;28;97149;-83
2024/03/25 05:56:00;;;;;;;12.60;3.33;;;;;;;6.82;60.80;100835.72;4932332;28;96934;-83
2024/03/25 05:58:26;;;;;;;13.77;3.83;;;;;;;6.82;60.66;100838.31;4948903;28;97956;-83
2024/03/25 06:00:53;;;;;;;17.95;4.05;;;;;;;6.82;60.84;100827.94;4951056;28;100698;-83
2024/03/25 06:03:18;;;;;;;12.43;3.30;;;;;;;6.80;60.93;100832.22;4927397;28;96909;-83
2024/03/25 06:05:44;;;;;;;16.20;3.75;;;;;;;6.80;61.03;100827.88;4942295;28;96928;-83
2024/03/25 06:08:18;;;;;;;13.55;3.53;;;;;;;6.81;61.14;100827.06;4931797;28;100362;-83
2024/03/25 06:10:44;;;;;;;19.58;3.83;;;;;;;6.82;61.19;100822.75;4947334;28;98065;-84
2024/03/25 06:13:09;;;;;;;17.02;4.00;;;;;;;6.82;61.00;100826.22;4936076;28;96873;-84
2024/03/25 06:15:35;;;;;;;15.02;3.13;;;;;;;6.84;61.05;100821.06;4945487;28;96887;-83
2024/03/25 06:18:00;;;;;;;20.52;4.18;;;;;;;6.84;61.05;100819.38;4952480;28;97663;-83
2024/03/25 06:20:25;;;;;;;13.75;3.33;;;;;;;6.88;61.42;100822.03;4930279;28;100242;-83
2024/03/25 06:22:51;;;;;;;13.65;3.47;;;;;;;6.92;61.26;100819.56;4940976;28;97179;-80
2024/03/25 06:25:17;;;;;;;13.85;3.40;;;;;;;6.97;61.51;100823.19;4949208;28;96817;-83
2024/03/25 06:27:44;;;;;;;21.38;4.70;;;;;;;7.05;61.77;100818.19;4949440;28;97537;-83
2024/03/25 06:35:38;;;;;;;11.15;3.45;;;;;;;7.37;61.79;100808.63;4950690;28;96994;-82
2024/03/25 06:38:03;;;;;;;19.70;5.65;;;;;;;7.43;61.65;100815.69;4931005;28;101245;-83
2024/03/25 06:40:29;;;;;;;15.98;4.03;;;;;;;7.50;62.04;100814.13;4949916;28;98783;-83
2024/03/25 06:42:54;;;;;;;22.50;4.90;;;;;;;7.59;62.11;100811.75;4932840;28;97332;-82
2024/03/25 06:45:20;;;;;;;16.50;4.38;;;;;;;7.69;62.04;100818.06;4952582;28;96973;-82
2024/03/25 06:47:45;;;;;;;21.20;4.95;;;;;;;7.79;62.13;100807.91;4948702;28;101270;-82
2024/03/25 06:50:13;;;;;;;17.52;4.30;;;;;;;7.89;61.97;100805.53;4945406;28;97779;-82
2024/03/25 06:52:39;;;;;;;16.45;3.72;;;;;;;7.99;62.25;100805.78;4946367;28;96877;-81
2024/03/25 06:55:05;;;;;;;17.17;4.10;;;;;;;8.11;61.89;100809.47;4929732;28;96939;-81
2024/03/25 06:57:30;;;;;;;15.20;3.67;;;;;;;8.19;61.77;100806.19;4948922;28;98043;-81
2024/03/25 06:59:57;;;;;;;23.17;4.97;;;;;;;8.28;61.96;100800.31;4929104;28;100673;-82
2024/03/25 07:02:23;;;;;;;14.00;3.88;;;;;;;8.38;61.74;100802.28;4945066;28;97017;-82
2024/03/25 07:04:49;;;;;;;19.10;4.53;;;;;;;8.51;62.26;100797.38;4943832;28;96909;-82
2024/03/25 07:07:14;;;;;;;17.50;4.68;;;;;;;8.66;62.06;100807.19;4933295;28;100125;-82
2024/03/25 07:09:40;;;;;;;18.67;4.10;;;;;;;8.79;62.03;100808.28;4953910;28;99437;-81
2024/03/25 07:12:06;;;;;;;18.15;4.72;;;;;;;8.88;61.82;100804.16;4946884;28;96876;-82
2024/03/25 07:14:32;;;;;;;18.88;4.25;;;;;;;9.01;61.78;100807.88;4945160;28;96868;-81
2024/03/25 07:16:57;;;;;;;13.82;3.70;;;;;;;9.09;61.69;100810.59;4951460;28;97965;-81
2024/03/25 07:19:23;;;;;;;17.70;4.20;;;;;;;9.16;61.71;100802.03;4952324;28;100542;-82
2024/03/25 07:21:48;;;;;;;15.10;4.20;;;;;;;9.23;61.84;100803.03;4955191;28;96760;-83
2024/03/25 07:24:13;;;;;;;19.85;4.68;;;;;;;9.29;61.37;100804.03;4951737;28;96948;-82
2024/03/25 07:26:39;;;;;;;19.25;4.22;;;;;;;9.35;61.43;100805.84;4941000;28;100577;-83
2024/03/25 07:29:04;;;;;;;18.77;4.32;;;;;;;9.45;61.82;100801.69;4943540;28;100291;-83
2024/03/25 07:31:30;;;;;;;22.38;4.15;;;;;;;9.63;62.43;100804.59;4941000;28;96903;-84
2024/03/25 07:33:55;;;;;;;21.67;4.80;;;;;;;9.87;63.18;100808.41;4946181;28;96953;-83
2024/03/25 07:36:20;;;;;;;23.42;4.32;;;;;;;10.16;63.53;100806.22;4954058;28;100526;-83
2024/03/25 07:38:47;;;;;;;16.75;3.90;;;;;;;10.50;64.13;100803.19;4944863;28;100542;-83
2024/03/25 07:41:12;;;;;;;12.45;3.35;;;;;;;10.83;64.39;100811.41;4959906;28;96915;-84
2024/03/25 07:43:38;;;;;;;16.92;3.90;;;;;;;11.19;63.98;100809.16;4957954;28;96842;-83
2024/03/25 07:46:04;;;;;;;19.38;4.05;;;;;;;11.57;63.93;100809.50;4956722;28;97798;-83
2024/03/25 07:48:30;;;;;;;19.45;3.80;;;;;;;11.95;63.79;100808.94;4959769;28;97760;-84
2024/03/25 07:50:58;;;;;;;12.15;3.40;;;;;;;12.32;62.65;100796.06;4942782;28;97340;-86
2024/03/25 07:53:24;;;;;;;21.70;3.78;;;;;;;12.64;61.81;100799.66;4945865;28;96901;-83
2024/03/25 07:55:51;;;;;;;17.02;3.83;;;;;;;12.93;61.04;100805.84;4953710;28;98771;-84
2024/03/25 07:58:16;;;;;;;12.98;4.03;;;;;;;13.14;60.19;100807.66;4933902;28;100738;-84
2024/03/25 08:00:41;;;;;;;16.05;3.45;;;;;;;13.29;60.21;100805.91;4945310;28;96850;-84
2024/03/25 08:03:08;;;;;;;20.48;4.38;;;;;;;13.49;60.22;100812.09;4946863;28;96853;-84
2024/03/25 08:05:33;;;;;;;17.95;4.38;;;;;;;13.68;60.20;100805.06;4961124;28;100267;-84
2024/03/25 08:07:58;;;;;;;16.63;4.18;;;;;;;13.93;60.71;100809.41;4951556;28;96828;-84
2024/03/25 08:10:24;;;;;;;13.45;3.40;;;;;;;14.23;60.94;100818.97;4943597;28;96898;-84
2024/03/25 08:12:49;;;;;;;17.40;4.00;;;;;;;14.45;60.21;100811.88;4938071;28;96926;-84
2024/03/25 08:15:16;;;;;;;15.55;3.88;;;;;;;14.70;59.71;100819.69;4941053;28;101225;-84
2024/03/25 08:17:41;;;;;;;16.33;4.03;;;;;;;14.88;59.15;100822.19;4939453;28;100520;-85
2024/03/25 08:20:08;;;;;;;19.25;3.75;;;;;;;15.04;58.54;100826.50;4955879;28;96859;-84
2024/03/25 08:22:33;;;;;;;14.80;3.47;;;;;;;15.20;57.53;100832.53;4942083;28;96967;-84
2024/03/25 08:24:59;;;;;;;17.63;3.90;;;;;;;15.31;56.50;100814.06;4946508;28;100443;-84
2024/03/25 08:27:24;;;;;;;18.67;4.03;;;;;;;15.40;56.27;100814.00;4946592;28;100426;-82
2024/03/25 08:29:53;;;;;;;18.52;3.83;;;;;;;15.47;55.56;100811.28;4952725;28;96839;-91
2024/03/25 08:32:19;;;;;;;19.50;4.00;;;;;;;15.51;54.99;100811.28;4965453;28;96762;-90
2024/03/25 08:34:44;;;;;;;15.10;4.13;;;;;;;15.61;55.36;100804.16;4957711;28;100243;-91
2024/03/25 08:37:09;;;;;;;21.40;4.05;;;;;;;15.82;55.55;100799.63;4950094;28;102528;-90
2024/03/25 08:39:35;;;;;;;23.45;4.25;;;;;;;16.09;55.47;100791.44;4962798;28;96749;-89
2024/03/25 08:42:00;;;;;;;25.05;4.10;;;;;;;16.40;55.61;100793.75;4963661;28;96786;-89
2024/03/25 08:44:26;;;;;;;17.33;3.58;;;;;;;16.63;54.72;100803.09;4962237;28;98915;-91
2024/03/25 08:46:51;;;;;;;20.88;3.83;;;;;;;16.82;54.66;100803.72;4947095;28;99840;-90
2024/03/25 08:49:17;;;;;;;15.18;3.75;;;;;;;16.87;53.95;100794.03;4941919;28;96725;-90
2024/03/25 08:51:43;;;;;;;15.80;3.72;;;;;;;16.86;53.32;100793.16;4947510;28;96852;-91
2024/03/25 08:54:08;;;;;;;17.50;3.80;;;;;;;16.84;52.80;100802.81;4961195;28;100854;-90
2024/03/25 08:56:34;;;;;;;23.35;3.67;;;;;;;16.85;52.56;100795.81;4945920;28;100311;-90
2024/03/25 08:58:59;;;;;;;15.88;3.63;;;;;;;16.85;51.77;100796.69;4947326;28;97095;-90
2024/03/25 09:01:26;;;;;;;15.10;4.13;;;;;;;16.77;50.66;100793.22;4949058;28;96626;-89
2024/03/25 09:03:51;;;;;;;21.40;4.07;;;;;;;16.55;50.16;100787.41;4962736;28;100352;-89
2024/03/25 09:06:17;;;;;;;17.63;3.78;;;;;;;16.34;50.77;100789.38;4951363;28;99324;-90
2024/03/25 09:11:26;;;;;;;17.60;3.20;;;;;;;16.08;50.43;100781.81;4976536;28;96804;-89
2024/03/25 09:13:52;;;;;;;16.80;3.42;;;;;;;15.98;51.08;100788.06;4959527;28;100783;-88
2024/03/25 09:16:18;;;;;;;19.80;3.75;;;;;;;16.04;52.07;100781.84;4937501;28;101415;-88
2024/03/25 09:18:44;;;;;;;24.85;3.78;;;;;;;16.18;52.13;100779.94;4957813;28;96733;-89
2024/03/25 09:21:09;;;;;;;22.10;3.83;;;;;;;16.32;52.21;100785.06;4956254;28;97015;-89
2024/03/25 09:23:34;;;;;;;17.88;3.65;;;;;;;16.45;51.84;100778.75;4949269;28;100362;-88
2024/03/25 09:26:01;;;;;;;19.27;4.28;;;;;;;16.56;50.71;100778.63;4967709;28;99944;-88
2024/03/25 09:28:26;;;;;;;14.32;3.95;;;;;;;16.46;50.21;100771.72;4958111;28;96864;-88
2024/03/25 09:30:52;;;;;;;12.90;3.45;;;;;;;16.41;49.96;100769.13;4949435;28;96941;-89
2024/03/25 09:33:17;;;;;;;18.88;4.55;;;;;;;16.41;49.87;100768.28;4947978;28;100587;-88
2024/03/25 09:35:43;;;;;;;17.60;3.67;;;;;;;16.42;50.13;100768.25;4962066;28;98078;-89
2024/03/25 09:38:08;;;;;;;16.45;4.05;;;;;;;16.49;50.35;100771.69;4956221;28;96938;-88
2024/03/25 09:40:39;;;;;;;16.50;3.60;;;;;;;16.54;49.72;100765.47;4940251;28;96928;-89
2024/03/25 09:43:10;;;;;;;14.23;3.72;;;;;;;16.53;48.83;100762.84;4947343;28;100723;-89
2024/03/25 09:45:36;;;;;;;23.38;4.13;;;;;;;16.37;48.09;100765.66;4943504;28;100542;-89
2024/03/25 09:48:04;;;;;;;19.30;4.70;;;;;;;16.14;48.20;100768.59;4962111;28;96799;-89
2024/03/25 09:50:30;;;;;;;16.88;3.90;;;;;;;15.99;48.67;100761.75;4940592;28;96855;-90
2024/03/25 09:52:55;;;;;;;19.23;5.05;;;;;;;15.87;48.58;100763.66;4961124;28;100751;-88
2024/03/25 09:55:22;;;;;;;18.80;3.97;;;;;;;15.71;48.66;100753.25;4945873;28;100470;-90
2024/03/25 09:57:47;;;;;;;18.90;4.65;;;;;;;15.67;49.41;100748.00;4947424;28;96837;-89
2024/03/25 10:00:16;;;;;;;18.17;5.20;;;;;;;15.74;49.56;100752.31;4940871;28;96914;-88
2024/03/25 10:02:42;;;;;;;18.65;4.53;;;;;;;15.76;48.72;100751.47;4951311;28;100780;-89
2024/03/25 10:05:08;;;;;;;18.70;4.95;;;;;;;15.73;48.46;100738.31;4953806;28;98066;-89
2024/03/25 10:07:34;;;;;;;15.75;4.60;;;;;;;15.69;48.91;100728.72;4950088;28;96866;-88
2024/03/25 10:10:05;;;;;;;16.45;4.60;;;;;;;15.76;49.00;100733.06;4957683;28;97135;-88
2024/03/25 10:12:31;;;;;;;15.85;5.00;;;;;;;15.75;48.73;100720.78;4955082;28;100300;-88
2024/03/25 10:14:57;;;;;;;19.05;5.82;;;;;;;15.72;48.42;100733.06;4950657;28;97466;-89
2024/03/25 10:17:23;;;;;;;15.95;4.95;;;;;;;15.63;48.05;100722.66;4951143;28;96860;-89
2024/03/25 10:19:48;;;;;;;14.60;5.07;;;;;;;15.56;48.53;100727.97;4941671;28;97007;-87
2024/03/25 10:22:14;;;;;;;19.30;4.85;;;;;;;15.58;48.93;100725.34;4949389;28;100554;-89
2024/03/25 10:24:45;;;;;;;17.02;5.00;;;;;;;15.64;48.88;100721.78;4957371;28;100147;-90
2024/03/25 10:27:18;;;;;;;17.23;5.30;;;;;;;15.71;49.33;100723.44;4955752;28;96843;-90
2024/03/25 10:29:44;;;;;;;15.98;5.80;;;;;;;15.86;49.15;100717.19;4941721;28;96913;-89
2024/03/25 10:32:09;;;;;;;15.77;5.10;;;;;;;15.99;48.90;100711.75;4940080;28;100281;-92
2024/03/25 10:34:35;;;;;;;16.42;6.43;;;;;;;16.06;48.19;100709.94;4957965;28;100492;-91
2024/03/25 10:37:04;;;;;;;14.00;4.93;;;;;;;16.07;48.15;100705.53;4950677;28;96770;-89
2024/03/25 10:39:32;;;;;;;20.17;5.53;;;;;;;16.07;47.70;100706.41;4931856;28;96950;-90
2024/03/25 10:42:03;;;;;;;18.00;5.25;;;;;;;15.99;48.17;100695.97;4938899;28;100554;-90
2024/03/25 10:44:29;;;;;;;16.10;5.38;;;;;;;16.03;47.74;100698.59;4956268;28;100442;-89
2024/03/25 10:47:05;;;;;;;14.98;5.57;;;;;;;16.03;47.60;100685.44;4942355;28;96866;-90
2024/03/25 10:49:51;;;;;;;16.40;5.57;;;;;;;15.94;47.44;100695.16;4955030;28;96910;-89
2024/03/25 10:52:18;;;;;;;15.73;5.57;;;;;;;15.88;47.61;100694.34;4953459;28;97637;-88
2024/03/25 10:54:47;;;;;;;18.17;6.00;;;;;;;15.80;47.23;100690.06;4955800;28;100787;-88
2024/03/25 10:57:13;;;;;;;16.70;6.35;;;;;;;15.74;46.98;100692.78;4959104;28;96797;-87
2024/03/25 10:59:42;;;;;;;15.32;5.60;;;;;;;15.74;47.26;100690.13;4955342;28;96896;-88
2024/03/25 11:02:08;;;;;;;14.38;6.40;;;;;;;15.75;47.18;100683.97;4956715;28;100626;-88
2024/03/25 11:04:35;;;;;;;15.60;6.05;;;;;;;15.76;46.88;100690.13;4940475;28;99906;-88
2024/03/25 11:07:14;;;;;;;13.20;6.30;;;;;;;15.69;46.94;100668.25;4944530;28;96911;-88
2024/03/25 11:09:40;;;;;;;15.70;6.03;;;;;;;15.73;47.62;100679.59;4952031;28;96915;-88
2024/03/25 11:12:07;;;;;;;13.07;5.43;;;;;;;15.90;48.33;100674.16;4960881;28;100583;-89
2024/03/25 11:14:35;;;;;;;14.27;6.05;;;;;;;16.12;48.45;100672.16;4961552;28;100735;-90
2024/03/25 11:17:01;;;;;;;12.88;6.50;;;;;;;16.39;47.77;100667.41;4950108;28;96869;-88
2024/03/25 11:19:28;;;;;;;16.15;5.90;;;;;;;16.61;47.06;100660.03;4947177;28;96903;-89
2024/03/25 11:21:54;;;;;;;22.80;7.00;;;;;;;16.66;46.21;100656.44;4961219;28;98137;-89
2024/03/25 11:24:29;;;;;;;12.50;6.05;;;;;;;16.64;46.49;100652.97;4942968;28;100292;-90